sensor_id;sensor_type;location;lat;lon;timestamp;P1;durP1;ratioP1;P2;durP2;ratioP2
60468;SDS011;46316;47.582;10.238;2022-07-06T00:01:33;2.33;;;2.03;;
60468;SDS011;46316;47.582;10.238;2022-07-06T00:04:01;3.15;;;2.22;;
60468;SDS011;46316;47.582;10.238;2022-07-06T00:06:27;2.45;;;2.25;;
60468;SDS011;46316;47.582;10.238;2022-07-06T00:08:53;2.40;;;2.20;;
60468;SDS011;46316;47.582;10.238;2022-07-06T00:11:19;4.03;;;2.30;;
60468;SDS011;46316;47.582;10.238;2022-07-06T00:13:44;3.05;;;2.60;;
60468;SDS011;46316;47.582;10.238;2022-07-06T00:16:10;2.40;;;2.20;;
60468;SDS011;46316;47.582;10.238;2022-07-06T00:18:35;4.18;;;2.80;;
60468;SDS011;46316;47.582;10.238;2022-07-06T00:21:01;2.50;;;2.30;;
60468;SDS011;46316;47.582;10.238;2022-07-06T00:23:27;6.20;;;3.05;;
60468;SDS011;46316;47.582;10.238;2022-07-06T00:25:52;4.03;;;2.80;;
60468;SDS011;46316;47.582;10.238;2022-07-06T00:28:18;4.28;;;2.60;;
60468;SDS011;46316;47.582;10.238;2022-07-06T00:30:43;3.53;;;2.63;;
60468;SDS011;46316;47.582;10.238;2022-07-06T00:33:09;3.55;;;2.67;;
60468;SDS011;46316;47.582;10.238;2022-07-06T00:35:34;4.72;;;3.05;;
60468;SDS011;46316;47.582;10.238;2022-07-06T00:38:00;4.47;;;3.17;;
60468;SDS011;46316;47.582;10.238;2022-07-06T00:40:26;4.00;;;3.20;;
60468;SDS011;46316;47.582;10.238;2022-07-06T00:42:52;3.55;;;3.17;;
60468;SDS011;46316;47.582;10.238;2022-07-06T00:45:18;4.13;;;2.92;;
60468;SDS011;46316;47.582;10.238;2022-07-06T00:47:44;4.20;;;2.97;;
60468;SDS011;46316;47.582;10.238;2022-07-06T00:50:11;4.50;;;2.90;;
60468;SDS011;46316;47.582;10.238;2022-07-06T00:55:23;3.15;;;2.55;;
60468;SDS011;46316;47.582;10.238;2022-07-06T00:57:50;4.03;;;2.85;;
60468;SDS011;46316;47.582;10.238;2022-07-06T01:00:17;4.68;;;2.85;;
60468;SDS011;46316;47.582;10.238;2022-07-06T01:02:45;6.13;;;2.63;;
60468;SDS011;46316;47.582;10.238;2022-07-06T01:05:11;3.30;;;2.60;;
60468;SDS011;46316;47.582;10.238;2022-07-06T01:07:38;4.68;;;2.88;;
60468;SDS011;46316;47.582;10.238;2022-07-06T01:10:05;3.13;;;2.63;;
60468;SDS011;46316;47.582;10.238;2022-07-06T01:12:31;3.72;;;2.53;;
60468;SDS011;46316;47.582;10.238;2022-07-06T01:14:59;3.63;;;2.65;;
60468;SDS011;46316;47.582;10.238;2022-07-06T01:17:26;3.30;;;2.67;;
60468;SDS011;46316;47.582;10.238;2022-07-06T01:19:52;2.78;;;2.50;;
60468;SDS011;46316;47.582;10.238;2022-07-06T01:22:18;4.13;;;3.00;;
60468;SDS011;46316;47.582;10.238;2022-07-06T01:24:44;3.15;;;2.88;;
60468;SDS011;46316;47.582;10.238;2022-07-06T01:27:09;4.63;;;2.95;;
60468;SDS011;46316;47.582;10.238;2022-07-06T01:29:35;5.85;;;3.20;;
60468;SDS011;46316;47.582;10.238;2022-07-06T01:32:00;3.25;;;2.95;;
60468;SDS011;46316;47.582;10.238;2022-07-06T01:34:26;3.92;;;3.28;;
60468;SDS011;46316;47.582;10.238;2022-07-06T01:36:52;3.25;;;2.83;;
60468;SDS011;46316;47.582;10.238;2022-07-06T01:39:18;3.65;;;3.35;;
60468;SDS011;46316;47.582;10.238;2022-07-06T01:41:44;3.45;;;2.72;;
60468;SDS011;46316;47.582;10.238;2022-07-06T01:44:10;4.10;;;3.30;;
60468;SDS011;46316;47.582;10.238;2022-07-06T01:46:36;3.35;;;3.03;;
60468;SDS011;46316;47.582;10.238;2022-07-06T01:49:02;3.35;;;3.03;;
60468;SDS011;46316;47.582;10.238;2022-07-06T01:51:29;6.07;;;3.20;;
60468;SDS011;46316;47.582;10.238;2022-07-06T01:53:54;3.85;;;3.13;;
60468;SDS011;46316;47.582;10.238;2022-07-06T01:56:20;3.47;;;2.83;;
60468;SDS011;46316;47.582;10.238;2022-07-06T01:58:46;4.47;;;3.00;;
60468;SDS011;46316;47.582;10.238;2022-07-06T02:01:16;3.30;;;2.60;;
60468;SDS011;46316;47.582;10.238;2022-07-06T02:03:43;3.08;;;2.88;;
60468;SDS011;46316;47.582;10.238;2022-07-06T02:06:09;3.38;;;2.72;;
60468;SDS011;46316;47.582;10.238;2022-07-06T02:08:37;3.35;;;3.05;;
60468;SDS011;46316;47.582;10.238;2022-07-06T02:11:03;3.47;;;3.22;;
60468;SDS011;46316;47.582;10.238;2022-07-06T02:13:33;5.03;;;3.58;;
60468;SDS011;46316;47.582;10.238;2022-07-06T02:15:59;3.38;;;3.08;;
60468;SDS011;46316;47.582;10.238;2022-07-06T02:18:25;4.20;;;3.28;;
60468;SDS011;46316;47.582;10.238;2022-07-06T02:20:51;4.70;;;3.25;;
60468;SDS011;46316;47.582;10.238;2022-07-06T02:23:17;3.50;;;3.20;;
60468;SDS011;46316;47.582;10.238;2022-07-06T02:25:42;3.30;;;3.00;;
60468;SDS011;46316;47.582;10.238;2022-07-06T02:28:08;3.70;;;3.40;;
60468;SDS011;46316;47.582;10.238;2022-07-06T02:30:33;3.42;;;2.80;;
60468;SDS011;46316;47.582;10.238;2022-07-06T02:32:59;3.15;;;2.85;;
60468;SDS011;46316;47.582;10.238;2022-07-06T02:35:24;2.95;;;2.63;;
60468;SDS011;46316;47.582;10.238;2022-07-06T02:37:50;3.13;;;2.90;;
60468;SDS011;46316;47.582;10.238;2022-07-06T02:40:15;4.63;;;3.20;;
60468;SDS011;46316;47.582;10.238;2022-07-06T02:42:41;4.30;;;3.05;;
60468;SDS011;46316;47.582;10.238;2022-07-06T02:45:07;3.80;;;3.38;;
60468;SDS011;46316;47.582;10.238;2022-07-06T02:47:33;3.95;;;3.38;;
60468;SDS011;46316;47.582;10.238;2022-07-06T02:49:59;3.92;;;3.63;;
60468;SDS011;46316;47.582;10.238;2022-07-06T02:52:24;3.00;;;2.80;;
60468;SDS011;46316;47.582;10.238;2022-07-06T02:54:50;3.13;;;2.83;;
60468;SDS011;46316;47.582;10.238;2022-07-06T02:57:16;3.25;;;2.92;;
60468;SDS011;46316;47.582;10.238;2022-07-06T02:59:41;3.50;;;3.20;;
60468;SDS011;46316;47.582;10.238;2022-07-06T03:02:07;3.85;;;3.17;;
60468;SDS011;46316;47.582;10.238;2022-07-06T03:04:33;6.85;;;3.10;;
60468;SDS011;46316;47.582;10.238;2022-07-06T03:06:59;2.97;;;2.67;;
60468;SDS011;46316;47.582;10.238;2022-07-06T03:09:24;6.38;;;2.85;;
60468;SDS011;46316;47.582;10.238;2022-07-06T03:11:50;3.15;;;2.60;;
60468;SDS011;46316;47.582;10.238;2022-07-06T03:14:16;2.70;;;2.50;;
60468;SDS011;46316;47.582;10.238;2022-07-06T03:16:42;2.88;;;2.35;;
60468;SDS011;46316;47.582;10.238;2022-07-06T03:19:08;2.40;;;2.20;;
60468;SDS011;46316;47.582;10.238;2022-07-06T03:21:33;6.47;;;2.67;;
60468;SDS011;46316;47.582;10.238;2022-07-06T03:23:59;4.72;;;2.85;;
60468;SDS011;46316;47.582;10.238;2022-07-06T03:26:24;3.25;;;2.95;;
60468;SDS011;46316;47.582;10.238;2022-07-06T03:28:50;3.88;;;2.65;;
60468;SDS011;46316;47.582;10.238;2022-07-06T03:31:15;3.83;;;2.78;;
60468;SDS011;46316;47.582;10.238;2022-07-06T03:33:41;3.03;;;2.45;;
60468;SDS011;46316;47.582;10.238;2022-07-06T03:36:07;2.65;;;2.45;;
60468;SDS011;46316;47.582;10.238;2022-07-06T03:38:33;3.15;;;2.45;;
60468;SDS011;46316;47.582;10.238;2022-07-06T03:40:59;7.45;;;2.78;;
60468;SDS011;46316;47.582;10.238;2022-07-06T03:43:24;3.75;;;2.50;;
60468;SDS011;46316;47.582;10.238;2022-07-06T03:45:50;2.85;;;2.65;;
60468;SDS011;46316;47.582;10.238;2022-07-06T03:48:16;3.05;;;2.80;;
60468;SDS011;46316;47.582;10.238;2022-07-06T03:50:42;3.25;;;3.05;;
60468;SDS011;46316;47.582;10.238;2022-07-06T03:53:07;4.10;;;2.70;;
60468;SDS011;46316;47.582;10.238;2022-07-06T03:55:33;2.60;;;2.40;;
60468;SDS011;46316;47.582;10.238;2022-07-06T03:57:58;2.70;;;2.47;;
60468;SDS011;46316;47.582;10.238;2022-07-06T04:00:24;2.47;;;2.28;;
60468;SDS011;46316;47.582;10.238;2022-07-06T04:02:49;3.13;;;2.88;;
60468;SDS011;46316;47.582;10.238;2022-07-06T04:05:15;2.92;;;2.63;;
60468;SDS011;46316;47.582;10.238;2022-07-06T04:07:45;4.88;;;2.65;;
60468;SDS011;46316;47.582;10.238;2022-07-06T04:10:14;2.17;;;2.00;;
60468;SDS011;46316;47.582;10.238;2022-07-06T04:12:41;2.00;;;1.90;;
60468;SDS011;46316;47.582;10.238;2022-07-06T04:15:08;2.08;;;1.70;;
60468;SDS011;46316;47.582;10.238;2022-07-06T04:17:33;2.53;;;1.80;;
60468;SDS011;46316;47.582;10.238;2022-07-06T04:20:17;2.65;;;1.70;;
60468;SDS011;46316;47.582;10.238;2022-07-06T04:22:43;1.80;;;1.63;;
60468;SDS011;46316;47.582;10.238;2022-07-06T04:25:09;3.55;;;1.77;;
60468;SDS011;46316;47.582;10.238;2022-07-06T04:27:35;2.67;;;2.00;;
60468;SDS011;46316;47.582;10.238;2022-07-06T04:30:01;1.60;;;1.50;;
60468;SDS011;46316;47.582;10.238;2022-07-06T04:32:28;3.75;;;1.55;;
60468;SDS011;46316;47.582;10.238;2022-07-06T04:34:53;2.53;;;1.40;;
60468;SDS011;46316;47.582;10.238;2022-07-06T04:37:19;3.42;;;1.30;;
60468;SDS011;46316;47.582;10.238;2022-07-06T04:39:45;2.90;;;1.67;;
60468;SDS011;46316;47.582;10.238;2022-07-06T04:42:10;2.30;;;1.60;;
60468;SDS011;46316;47.582;10.238;2022-07-06T04:44:36;1.75;;;1.30;;
60468;SDS011;46316;47.582;10.238;2022-07-06T04:47:01;1.70;;;1.30;;
60468;SDS011;46316;47.582;10.238;2022-07-06T04:49:27;1.40;;;1.27;;
60468;SDS011;46316;47.582;10.238;2022-07-06T04:51:52;1.35;;;1.30;;
60468;SDS011;46316;47.582;10.238;2022-07-06T04:54:18;0.90;;;0.90;;
60468;SDS011;46316;47.582;10.238;2022-07-06T04:56:44;1.30;;;1.20;;
60468;SDS011;46316;47.582;10.238;2022-07-06T04:59:09;2.90;;;1.10;;
60468;SDS011;46316;47.582;10.238;2022-07-06T05:01:35;1.30;;;1.20;;
60468;SDS011;46316;47.582;10.238;2022-07-06T05:04:00;3.22;;;1.27;;
60468;SDS011;46316;47.582;10.238;2022-07-06T05:06:26;2.22;;;1.13;;
60468;SDS011;46316;47.582;10.238;2022-07-06T05:08:51;1.92;;;1.40;;
60468;SDS011;46316;47.582;10.238;2022-07-06T05:11:17;2.58;;;1.10;;
60468;SDS011;46316;47.582;10.238;2022-07-06T05:13:42;2.05;;;1.10;;
60468;SDS011;46316;47.582;10.238;2022-07-06T05:16:08;1.10;;;1.00;;
60468;SDS011;46316;47.582;10.238;2022-07-06T05:21:31;1.88;;;1.23;;
60468;SDS011;46316;47.582;10.238;2022-07-06T05:23:56;1.70;;;1.23;;
60468;SDS011;46316;47.582;10.238;2022-07-06T05:26:22;2.05;;;1.10;;
60468;SDS011;46316;47.582;10.238;2022-07-06T05:28:47;2.10;;;1.27;;
60468;SDS011;46316;47.582;10.238;2022-07-06T05:31:13;3.55;;;1.30;;
60468;SDS011;46316;47.582;10.238;2022-07-06T05:33:39;1.13;;;1.00;;
60468;SDS011;46316;47.582;10.238;2022-07-06T05:36:04;2.53;;;1.20;;
60468;SDS011;46316;47.582;10.238;2022-07-06T05:38:30;1.60;;;1.20;;
60468;SDS011;46316;47.582;10.238;2022-07-06T05:40:56;1.33;;;1.23;;
60468;SDS011;46316;47.582;10.238;2022-07-06T05:43:21;2.58;;;1.60;;
60468;SDS011;46316;47.582;10.238;2022-07-06T05:45:47;2.50;;;1.67;;
60468;SDS011;46316;47.582;10.238;2022-07-06T05:48:12;2.90;;;1.20;;
60468;SDS011;46316;47.582;10.238;2022-07-06T05:50:57;3.25;;;1.52;;
60468;SDS011;46316;47.582;10.238;2022-07-06T05:53:22;1.35;;;1.15;;
60468;SDS011;46316;47.582;10.238;2022-07-06T05:55:48;3.70;;;1.35;;
60468;SDS011;46316;47.582;10.238;2022-07-06T05:58:14;1.73;;;1.45;;
60468;SDS011;46316;47.582;10.238;2022-07-06T06:00:39;1.60;;;1.48;;
60468;SDS011;46316;47.582;10.238;2022-07-06T06:03:05;3.72;;;1.67;;
60468;SDS011;46316;47.582;10.238;2022-07-06T06:05:31;1.73;;;1.30;;
60468;SDS011;46316;47.582;10.238;2022-07-06T06:07:56;2.00;;;1.80;;
60468;SDS011;46316;47.582;10.238;2022-07-06T06:10:22;3.33;;;1.58;;
60468;SDS011;46316;47.582;10.238;2022-07-06T06:12:48;1.52;;;1.40;;
60468;SDS011;46316;47.582;10.238;2022-07-06T06:15:14;6.05;;;1.90;;
60468;SDS011;46316;47.582;10.238;2022-07-06T06:17:40;2.42;;;1.67;;
60468;SDS011;46316;47.582;10.238;2022-07-06T06:20:06;1.98;;;1.45;;
60468;SDS011;46316;47.582;10.238;2022-07-06T06:22:46;2.72;;;1.70;;
60468;SDS011;46316;47.582;10.238;2022-07-06T06:25:14;2.85;;;1.70;;
60468;SDS011;46316;47.582;10.238;2022-07-06T06:27:40;2.97;;;1.40;;
60468;SDS011;46316;47.582;10.238;2022-07-06T06:30:06;2.85;;;1.38;;
60468;SDS011;46316;47.582;10.238;2022-07-06T06:32:32;2.10;;;1.63;;
60468;SDS011;46316;47.582;10.238;2022-07-06T06:34:57;3.80;;;1.40;;
60468;SDS011;46316;47.582;10.238;2022-07-06T06:37:23;1.40;;;1.30;;
60468;SDS011;46316;47.582;10.238;2022-07-06T06:39:48;1.73;;;1.42;;
60468;SDS011;46316;47.582;10.238;2022-07-06T06:42:14;2.60;;;1.50;;
60468;SDS011;46316;47.582;10.238;2022-07-06T06:44:39;1.73;;;1.02;;
60468;SDS011;46316;47.582;10.238;2022-07-06T06:47:05;2.45;;;1.40;;
60468;SDS011;46316;47.582;10.238;2022-07-06T06:49:31;3.70;;;1.23;;
60468;SDS011;46316;47.582;10.238;2022-07-06T06:51:56;5.70;;;1.58;;
60468;SDS011;46316;47.582;10.238;2022-07-06T06:54:22;3.00;;;1.20;;
60468;SDS011;46316;47.582;10.238;2022-07-06T06:56:47;1.33;;;0.98;;
60468;SDS011;46316;47.582;10.238;2022-07-06T06:59:13;1.33;;;1.20;;
60468;SDS011;46316;47.582;10.238;2022-07-06T07:01:38;1.10;;;1.00;;
60468;SDS011;46316;47.582;10.238;2022-07-06T07:04:04;1.52;;;1.17;;
60468;SDS011;46316;47.582;10.238;2022-07-06T07:06:31;1.17;;;1.00;;
60468;SDS011;46316;47.582;10.238;2022-07-06T07:08:56;1.23;;;1.10;;
60468;SDS011;46316;47.582;10.238;2022-07-06T07:11:23;1.55;;;1.30;;
60468;SDS011;46316;47.582;10.238;2022-07-06T07:13:49;1.35;;;1.00;;
60468;SDS011;46316;47.582;10.238;2022-07-06T07:16:14;2.03;;;1.30;;
60468;SDS011;46316;47.582;10.238;2022-07-06T07:18:40;6.10;;;1.50;;
60468;SDS011;46316;47.582;10.238;2022-07-06T07:21:06;1.30;;;1.20;;
60468;SDS011;46316;47.582;10.238;2022-07-06T07:23:32;1.30;;;1.20;;
60468;SDS011;46316;47.582;10.238;2022-07-06T07:25:57;4.07;;;1.17;;
60468;SDS011;46316;47.582;10.238;2022-07-06T07:28:23;1.38;;;1.20;;
60468;SDS011;46316;47.582;10.238;2022-07-06T07:30:48;1.10;;;1.00;;
60468;SDS011;46316;47.582;10.238;2022-07-06T07:33:15;1.88;;;1.20;;
60468;SDS011;46316;47.582;10.238;2022-07-06T07:35:40;2.30;;;1.42;;
60468;SDS011;46316;47.582;10.238;2022-07-06T07:38:06;2.65;;;1.10;;
60468;SDS011;46316;47.582;10.238;2022-07-06T07:40:31;1.40;;;1.27;;
60468;SDS011;46316;47.582;10.238;2022-07-06T07:42:58;3.97;;;1.70;;
60468;SDS011;46316;47.582;10.238;2022-07-06T07:45:24;4.07;;;1.30;;
60468;SDS011;46316;47.582;10.238;2022-07-06T07:47:49;2.10;;;1.42;;
60468;SDS011;46316;47.582;10.238;2022-07-06T07:50:15;2.72;;;1.38;;
60468;SDS011;46316;47.582;10.238;2022-07-06T07:52:40;1.75;;;1.40;;
60468;SDS011;46316;47.582;10.238;2022-07-06T07:55:06;3.78;;;1.42;;
60468;SDS011;46316;47.582;10.238;2022-07-06T07:57:32;1.98;;;1.40;;
60468;SDS011;46316;47.582;10.238;2022-07-06T07:59:57;1.85;;;1.20;;
60468;SDS011;46316;47.582;10.238;2022-07-06T08:02:23;3.08;;;1.58;;
60468;SDS011;46316;47.582;10.238;2022-07-06T08:04:48;4.85;;;1.67;;
60468;SDS011;46316;47.582;10.238;2022-07-06T08:07:14;1.40;;;1.30;;
60468;SDS011;46316;47.582;10.238;2022-07-06T08:09:39;2.05;;;1.52;;
60468;SDS011;46316;47.582;10.238;2022-07-06T08:12:05;2.00;;;1.48;;
60468;SDS011;46316;47.582;10.238;2022-07-06T08:14:31;4.53;;;1.70;;
60468;SDS011;46316;47.582;10.238;2022-07-06T08:16:56;1.90;;;1.40;;
60468;SDS011;46316;47.582;10.238;2022-07-06T08:19:22;1.48;;;1.35;;
60468;SDS011;46316;47.582;10.238;2022-07-06T08:21:48;4.90;;;1.67;;
60468;SDS011;46316;47.582;10.238;2022-07-06T08:24:13;1.58;;;1.25;;
60468;SDS011;46316;47.582;10.238;2022-07-06T08:26:39;2.17;;;1.60;;
60468;SDS011;46316;47.582;10.238;2022-07-06T08:29:05;1.88;;;1.40;;
60468;SDS011;46316;47.582;10.238;2022-07-06T08:31:31;1.55;;;1.45;;
60468;SDS011;46316;47.582;10.238;2022-07-06T08:33:59;2.35;;;1.20;;
60468;SDS011;46316;47.582;10.238;2022-07-06T08:36:24;2.08;;;1.20;;
60468;SDS011;46316;47.582;10.238;2022-07-06T08:38:50;3.38;;;1.63;;
60468;SDS011;46316;47.582;10.238;2022-07-06T08:41:18;2.80;;;1.60;;
60468;SDS011;46316;47.582;10.238;2022-07-06T08:43:48;1.75;;;1.40;;
60468;SDS011;46316;47.582;10.238;2022-07-06T08:46:15;1.77;;;1.20;;
60468;SDS011;46316;47.582;10.238;2022-07-06T08:48:41;1.90;;;1.30;;
60468;SDS011;46316;47.582;10.238;2022-07-06T08:51:07;1.58;;;1.10;;
60468;SDS011;46316;47.582;10.238;2022-07-06T08:53:33;3.30;;;1.60;;
60468;SDS011;46316;47.582;10.238;2022-07-06T08:55:59;2.22;;;1.35;;
60468;SDS011;46316;47.582;10.238;2022-07-06T08:58:26;2.13;;;1.35;;
60468;SDS011;46316;47.582;10.238;2022-07-06T09:00:56;1.92;;;1.38;;
60468;SDS011;46316;47.582;10.238;2022-07-06T09:03:23;1.40;;;1.20;;
60468;SDS011;46316;47.582;10.238;2022-07-06T09:05:49;2.20;;;1.40;;
60468;SDS011;46316;47.582;10.238;2022-07-06T09:08:15;1.90;;;1.30;;
60468;SDS011;46316;47.582;10.238;2022-07-06T09:10:42;1.98;;;1.38;;
60468;SDS011;46316;47.582;10.238;2022-07-06T09:13:08;1.73;;;1.30;;
60468;SDS011;46316;47.582;10.238;2022-07-06T09:15:34;1.42;;;1.33;;
60468;SDS011;46316;47.582;10.238;2022-07-06T09:18:03;2.58;;;1.20;;
60468;SDS011;46316;47.582;10.238;2022-07-06T09:20:29;2.40;;;1.35;;
60468;SDS011;46316;47.582;10.238;2022-07-06T09:22:58;1.20;;;1.10;;
60468;SDS011;46316;47.582;10.238;2022-07-06T09:25:25;2.67;;;1.45;;
60468;SDS011;46316;47.582;10.238;2022-07-06T09:27:52;1.40;;;1.30;;
60468;SDS011;46316;47.582;10.238;2022-07-06T09:30:19;3.70;;;1.30;;
60468;SDS011;46316;47.582;10.238;2022-07-06T09:32:47;2.70;;;1.23;;
60468;SDS011;46316;47.582;10.238;2022-07-06T09:35:28;1.47;;;1.07;;
60468;SDS011;46316;47.582;10.238;2022-07-06T09:38:05;1.02;;;1.00;;
60468;SDS011;46316;47.582;10.238;2022-07-06T09:40:45;4.00;;;1.10;;
60468;SDS011;46316;47.582;10.238;2022-07-06T09:43:12;2.47;;;1.30;;
60468;SDS011;46316;47.582;10.238;2022-07-06T09:45:40;1.35;;;1.08;;
60468;SDS011;46316;47.582;10.238;2022-07-06T09:48:12;1.08;;;0.98;;
60468;SDS011;46316;47.582;10.238;2022-07-06T09:50:41;2.55;;;1.25;;
60468;SDS011;46316;47.582;10.238;2022-07-06T09:53:08;2.13;;;1.17;;
60468;SDS011;46316;47.582;10.238;2022-07-06T09:55:34;2.33;;;1.20;;
60468;SDS011;46316;47.582;10.238;2022-07-06T09:58:00;2.80;;;1.00;;
60468;SDS011;46316;47.582;10.238;2022-07-06T10:00:26;1.52;;;1.30;;
60468;SDS011;46316;47.582;10.238;2022-07-06T10:02:51;2.80;;;1.40;;
60468;SDS011;46316;47.582;10.238;2022-07-06T10:05:18;1.40;;;1.30;;
60468;SDS011;46316;47.582;10.238;2022-07-06T10:07:54;1.30;;;1.20;;
60468;SDS011;46316;47.582;10.238;2022-07-06T10:10:23;2.83;;;1.60;;
60468;SDS011;46316;47.582;10.238;2022-07-06T10:12:51;1.60;;;1.30;;
60468;SDS011;46316;47.582;10.238;2022-07-06T10:15:18;1.83;;;1.30;;
60468;SDS011;46316;47.582;10.238;2022-07-06T10:17:45;1.70;;;1.20;;
60468;SDS011;46316;47.582;10.238;2022-07-06T10:20:12;1.15;;;1.10;;
60468;SDS011;46316;47.582;10.238;2022-07-06T10:22:39;2.17;;;1.20;;
60468;SDS011;46316;47.582;10.238;2022-07-06T10:25:05;3.05;;;1.52;;
60468;SDS011;46316;47.582;10.238;2022-07-06T10:27:31;2.47;;;1.35;;
60468;SDS011;46316;47.582;10.238;2022-07-06T10:29:57;1.42;;;1.13;;
60468;SDS011;46316;47.582;10.238;2022-07-06T10:32:23;2.10;;;1.15;;
60468;SDS011;46316;47.582;10.238;2022-07-06T10:34:50;1.45;;;1.30;;
60468;SDS011;46316;47.582;10.238;2022-07-06T10:37:25;2.53;;;1.70;;
60468;SDS011;46316;47.582;10.238;2022-07-06T10:39:51;2.80;;;1.27;;
60468;SDS011;46316;47.582;10.238;2022-07-06T10:42:42;1.20;;;1.10;;
60468;SDS011;46316;47.582;10.238;2022-07-06T10:48:15;1.70;;;1.50;;
60468;SDS011;46316;47.582;10.238;2022-07-06T10:53:22;3.88;;;1.48;;
60468;SDS011;46316;47.582;10.238;2022-07-06T10:55:50;4.53;;;1.80;;
60468;SDS011;46316;47.582;10.238;2022-07-06T10:58:34;3.42;;;1.30;;
60468;SDS011;46316;47.582;10.238;2022-07-06T11:01:02;1.60;;;1.20;;
60468;SDS011;46316;47.582;10.238;2022-07-06T11:03:29;1.70;;;1.20;;
60468;SDS011;46316;47.582;10.238;2022-07-06T11:06:00;2.85;;;1.27;;
60468;SDS011;46316;47.582;10.238;2022-07-06T11:08:43;2.70;;;1.20;;
60468;SDS011;46316;47.582;10.238;2022-07-06T11:11:15;3.60;;;1.30;;
60468;SDS011;46316;47.582;10.238;2022-07-06T11:16:26;1.52;;;1.27;;
60468;SDS011;46316;47.582;10.238;2022-07-06T11:24:15;1.80;;;1.00;;
60468;SDS011;46316;47.582;10.238;2022-07-06T11:26:46;2.92;;;1.17;;
60468;SDS011;46316;47.582;10.238;2022-07-06T11:29:14;3.60;;;1.20;;
60468;SDS011;46316;47.582;10.238;2022-07-06T11:31:43;1.58;;;1.05;;
60468;SDS011;46316;47.582;10.238;2022-07-06T11:34:13;4.43;;;1.50;;
60468;SDS011;46316;47.582;10.238;2022-07-06T11:36:59;1.55;;;1.10;;
60468;SDS011;46316;47.582;10.238;2022-07-06T11:39:27;3.22;;;1.50;;
60468;SDS011;46316;47.582;10.238;2022-07-06T11:41:58;1.92;;;1.27;;
60468;SDS011;46316;47.582;10.238;2022-07-06T11:44:24;2.72;;;1.17;;
60468;SDS011;46316;47.582;10.238;2022-07-06T11:46:50;2.95;;;1.33;;
60468;SDS011;46316;47.582;10.238;2022-07-06T11:49:16;3.35;;;1.50;;
60468;SDS011;46316;47.582;10.238;2022-07-06T11:51:45;1.17;;;1.08;;
60468;SDS011;46316;47.582;10.238;2022-07-06T11:54:12;2.45;;;1.30;;
60468;SDS011;46316;47.582;10.238;2022-07-06T11:56:45;1.73;;;1.30;;
60468;SDS011;46316;47.582;10.238;2022-07-06T11:59:20;1.80;;;1.20;;
60468;SDS011;46316;47.582;10.238;2022-07-06T12:01:47;1.58;;;0.88;;
60468;SDS011;46316;47.582;10.238;2022-07-06T12:04:13;1.50;;;1.30;;
60468;SDS011;46316;47.582;10.238;2022-07-06T12:06:43;1.73;;;1.23;;
60468;SDS011;46316;47.582;10.238;2022-07-06T12:09:10;4.20;;;1.50;;
60468;SDS011;46316;47.582;10.238;2022-07-06T12:11:36;1.92;;;1.20;;
60468;SDS011;46316;47.582;10.238;2022-07-06T12:14:18;1.85;;;1.30;;
60468;SDS011;46316;47.582;10.238;2022-07-06T12:16:46;2.40;;;1.25;;
60468;SDS011;46316;47.582;10.238;2022-07-06T12:19:13;2.85;;;1.40;;
60468;SDS011;46316;47.582;10.238;2022-07-06T12:24:51;2.22;;;1.15;;
60468;SDS011;46316;47.582;10.238;2022-07-06T12:27:18;2.75;;;1.20;;
60468;SDS011;46316;47.582;10.238;2022-07-06T12:29:48;2.63;;;1.20;;
60468;SDS011;46316;47.582;10.238;2022-07-06T12:35:47;4.75;;;1.05;;
60468;SDS011;46316;47.582;10.238;2022-07-06T12:38:13;1.67;;;1.25;;
60468;SDS011;46316;47.582;10.238;2022-07-06T12:40:50;1.15;;;1.10;;
60468;SDS011;46316;47.582;10.238;2022-07-06T12:43:34;2.75;;;1.25;;
60468;SDS011;46316;47.582;10.238;2022-07-06T12:48:55;1.42;;;1.30;;
60468;SDS011;46316;47.582;10.238;2022-07-06T12:51:21;4.63;;;1.42;;
60468;SDS011;46316;47.582;10.238;2022-07-06T12:53:47;1.98;;;1.27;;
60468;SDS011;46316;47.582;10.238;2022-07-06T12:56:14;2.22;;;1.25;;
60468;SDS011;46316;47.582;10.238;2022-07-06T12:58:54;3.88;;;1.38;;
60468;SDS011;46316;47.582;10.238;2022-07-06T13:01:23;2.60;;;1.48;;
60468;SDS011;46316;47.582;10.238;2022-07-06T13:03:53;2.05;;;1.20;;
60468;SDS011;46316;47.582;10.238;2022-07-06T13:06:32;3.17;;;1.55;;
60468;SDS011;46316;47.582;10.238;2022-07-06T13:09:00;3.03;;;1.40;;
60468;SDS011;46316;47.582;10.238;2022-07-06T13:11:45;3.30;;;1.30;;
60468;SDS011;46316;47.582;10.238;2022-07-06T13:14:11;3.20;;;1.38;;
60468;SDS011;46316;47.582;10.238;2022-07-06T13:16:38;1.35;;;1.20;;
60468;SDS011;46316;47.582;10.238;2022-07-06T13:19:03;2.25;;;1.48;;
60468;SDS011;46316;47.582;10.238;2022-07-06T13:21:29;1.42;;;1.20;;
60468;SDS011;46316;47.582;10.238;2022-07-06T13:23:55;4.05;;;1.67;;
60468;SDS011;46316;47.582;10.238;2022-07-06T13:26:20;2.50;;;1.50;;
60468;SDS011;46316;47.582;10.238;2022-07-06T13:28:46;1.88;;;1.30;;
60468;SDS011;46316;47.582;10.238;2022-07-06T13:31:11;2.60;;;1.45;;
60468;SDS011;46316;47.582;10.238;2022-07-06T13:33:37;2.85;;;1.30;;
60468;SDS011;46316;47.582;10.238;2022-07-06T13:36:03;1.77;;;1.38;;
60468;SDS011;46316;47.582;10.238;2022-07-06T13:38:29;1.75;;;1.33;;
60468;SDS011;46316;47.582;10.238;2022-07-06T13:40:54;1.98;;;1.45;;
60468;SDS011;46316;47.582;10.238;2022-07-06T13:43:20;1.33;;;1.23;;
60468;SDS011;46316;47.582;10.238;2022-07-06T13:45:46;1.85;;;1.20;;
60468;SDS011;46316;47.582;10.238;2022-07-06T13:48:12;2.78;;;1.30;;
60468;SDS011;46316;47.582;10.238;2022-07-06T13:50:38;2.20;;;1.23;;
60468;SDS011;46316;47.582;10.238;2022-07-06T13:53:03;3.00;;;1.20;;
60468;SDS011;46316;47.582;10.238;2022-07-06T13:55:30;2.38;;;1.40;;
60468;SDS011;46316;47.582;10.238;2022-07-06T13:57:56;2.38;;;1.60;;
60468;SDS011;46316;47.582;10.238;2022-07-06T14:00:22;1.63;;;1.50;;
60468;SDS011;46316;47.582;10.238;2022-07-06T14:02:47;1.50;;;1.40;;
60468;SDS011;46316;47.582;10.238;2022-07-06T14:05:13;1.30;;;1.20;;
60468;SDS011;46316;47.582;10.238;2022-07-06T14:07:39;2.67;;;1.80;;
60468;SDS011;46316;47.582;10.238;2022-07-06T14:10:04;3.75;;;1.60;;
60468;SDS011;46316;47.582;10.238;2022-07-06T14:12:30;1.40;;;1.30;;
60468;SDS011;46316;47.582;10.238;2022-07-06T14:14:56;4.80;;;1.40;;
60468;SDS011;46316;47.582;10.238;2022-07-06T14:17:21;1.58;;;1.25;;
60468;SDS011;46316;47.582;10.238;2022-07-06T14:19:50;1.85;;;1.50;;
60468;SDS011;46316;47.582;10.238;2022-07-06T14:22:16;1.38;;;1.00;;
60468;SDS011;46316;47.582;10.238;2022-07-06T14:24:41;3.45;;;1.30;;
60468;SDS011;46316;47.582;10.238;2022-07-06T14:27:08;1.60;;;1.50;;
60468;SDS011;46316;47.582;10.238;2022-07-06T14:29:33;1.80;;;1.20;;
60468;SDS011;46316;47.582;10.238;2022-07-06T14:32:00;1.48;;;1.30;;
60468;SDS011;46316;47.582;10.238;2022-07-06T14:34:25;2.70;;;1.50;;
60468;SDS011;46316;47.582;10.238;2022-07-06T14:36:51;2.10;;;1.20;;
60468;SDS011;46316;47.582;10.238;2022-07-06T14:39:17;1.48;;;1.38;;
60468;SDS011;46316;47.582;10.238;2022-07-06T14:41:43;3.58;;;1.20;;
60468;SDS011;46316;47.582;10.238;2022-07-06T14:44:08;1.30;;;1.20;;
60468;SDS011;46316;47.582;10.238;2022-07-06T14:46:34;2.15;;;1.40;;
60468;SDS011;46316;47.582;10.238;2022-07-06T14:48:59;1.42;;;1.33;;
60468;SDS011;46316;47.582;10.238;2022-07-06T14:51:25;1.30;;;1.20;;
60468;SDS011;46316;47.582;10.238;2022-07-06T14:53:51;1.63;;;1.38;;
60468;SDS011;46316;47.582;10.238;2022-07-06T14:56:17;1.85;;;1.42;;
60468;SDS011;46316;47.582;10.238;2022-07-06T14:58:42;5.00;;;1.30;;
60468;SDS011;46316;47.582;10.238;2022-07-06T15:01:08;1.40;;;1.27;;